Time;durP1;ratioP1;P1;durP2;ratioP2;P2;SDS_P1;SDS_P2;PMS_P1;PMS_P2;Temp;Humidity;BMP_temperature;BMP_pressure;BME280_temperature;BME280_humidity;BME280_pressure;Samples;Min_cycle;Max_cycle;Signal;HPM_P1;HPM_P2
2021/05/31 00:02:25;;;;;;;8.53;3.08;;;;;;;11.41;89.02;99010.00;1870874;76;22205;-64
2021/05/31 00:05:03;;;;;;;7.05;2.80;;;;;;;11.39;89.21;99011.70;1854667;76;27897;-63
2021/05/31 00:07:38;;;;;;;8.48;2.95;;;;;;;11.45;89.63;99007.89;1870657;76;22112;-64
2021/05/31 00:10:13;;;;;;;10.68;2.62;;;;;;;11.44;89.83;99011.31;1889935;76;22104;-62
2021/05/31 00:12:49;;;;;;;18.23;3.92;;;;;;;11.45;90.20;99006.60;1870477;76;20351;-62
2021/05/31 00:15:29;;;;;;;9.10;3.52;;;;;;;11.43;90.55;99008.73;1870416;76;22164;-63
2021/05/31 00:18:04;;;;;;;10.75;3.25;;;;;;;11.42;90.80;99008.27;1889909;76;22148;-65
2021/05/31 00:20:39;;;;;;;10.32;3.02;;;;;;;11.42;91.05;99010.45;1870625;76;22575;-63
2021/05/31 00:23:13;;;;;;;6.03;3.20;;;;;;;11.42;91.35;99003.11;1870628;76;22149;-62
2021/05/31 00:25:48;;;;;;;5.62;2.62;;;;;;;11.38;91.33;99003.95;1870723;76;22185;-64
2021/05/31 00:28:22;;;;;;;9.30;3.00;;;;;;;11.34;91.42;99005.63;1889865;76;22581;-63
2021/05/31 00:30:57;;;;;;;7.03;2.72;;;;;;;11.31;91.75;99005.61;1889909;76;22116;-64
2021/05/31 00:33:33;;;;;;;6.53;3.27;;;;;;;11.28;91.75;99011.61;1854555;76;38615;-63
2021/05/31 00:36:09;;;;;;;11.03;3.22;;;;;;;11.34;91.68;99012.52;1873892;76;27943;-63
2021/05/31 00:38:44;;;;;;;6.75;2.62;;;;;;;11.36;91.60;99012.97;1870649;76;22163;-64
2021/05/31 00:41:24;;;;;;;9.55;2.72;;;;;;;11.35;91.65;99017.71;1889974;76;22175;-64
2021/05/31 00:44:03;;;;;;;9.85;2.72;;;;;;;11.35;91.78;99014.23;1870641;76;22124;-65
2021/05/31 00:46:38;;;;;;;9.05;3.05;;;;;;;11.35;91.75;99013.84;1854902;76;27895;-65
2021/05/31 00:49:24;;;;;;;6.80;2.90;;;;;;;11.37;91.58;99019.89;1889875;76;22139;-61
2021/05/31 00:52:16;;;;;;;6.30;2.67;;;;;;;11.34;91.36;99014.67;1870541;76;22559;-65
2021/05/31 00:54:52;;;;;;;4.80;2.70;;;;;;;11.32;91.62;99017.66;1854556;76;27922;-62
2021/05/31 00:57:28;;;;;;;6.50;2.60;;;;;;;11.34;91.50;99018.55;1870609;76;22547;-63
2021/05/31 01:00:06;;;;;;;7.90;2.67;;;;;;;11.32;91.36;99018.95;1870635;76;22156;-63
2021/05/31 01:02:43;;;;;;;10.10;2.67;;;;;;;11.30;91.42;99024.13;1870637;76;22113;-63
2021/05/31 01:05:22;;;;;;;7.47;2.65;;;;;;;11.30;91.48;99021.97;1870372;76;22245;-62
2021/05/31 01:08:00;;;;;;;8.80;2.52;;;;;;;11.29;91.52;99016.34;1889848;76;22135;-63
2021/05/31 01:10:52;;;;;;;4.42;2.47;;;;;;;11.26;91.31;99019.77;1870618;76;22140;-63
2021/05/31 01:13:44;;;;;;;9.08;3.27;;;;;;;11.23;91.23;99020.18;1889974;76;22148;-63
2021/05/31 01:16:28;;;;;;;7.78;4.00;;;;;;;11.22;91.41;99020.61;1870412;76;22124;-63
2021/05/31 01:19:50;;;;;;;8.50;2.30;;;;;;;11.18;91.44;99025.73;1827468;78;21150;-63
2021/05/31 01:22:29;;;;;;;6.03;2.98;;;;;;;11.23;91.09;99022.77;1870462;76;22137;-63
2021/05/31 01:25:28;;;;;;;7.30;3.37;;;;;;;11.20;90.82;99028.77;1870428;76;22140;-62
2021/05/31 01:28:27;;;;;;;6.53;2.67;;;;;;;11.14;90.61;99033.00;1890068;76;22203;-62
2021/05/31 01:31:03;;;;;;;8.53;2.90;;;;;;;11.09;90.88;99031.66;1870727;76;22187;-63
2021/05/31 01:33:53;;;;;;;6.42;3.02;;;;;;;11.03;91.02;99030.31;1827501;78;21146;-62
2021/05/31 01:36:33;;;;;;;7.28;3.58;;;;;;;11.10;90.98;99032.55;1870533;76;22254;-62
2021/05/31 01:39:13;;;;;;;7.28;3.02;;;;;;;11.07;90.86;99031.66;1889913;76;22160;-62
2021/05/31 01:41:54;;;;;;;7.17;2.62;;;;;;;11.07;90.99;99034.24;1889968;76;22136;-63
2021/05/31 01:44:30;;;;;;;7.87;3.22;;;;;;;11.06;91.05;99034.21;1870639;76;22113;-62
2021/05/31 01:47:05;;;;;;;8.30;3.40;;;;;;;11.07;91.18;99032.95;1870653;76;22588;-63
2021/05/31 01:49:42;;;;;;;10.68;3.58;;;;;;;11.11;91.26;99038.14;1870650;76;22113;-63
2021/05/31 01:52:30;;;;;;;6.45;3.20;;;;;;;11.11;91.32;99045.88;1760545;80;21153;-64
2021/05/31 01:55:14;;;;;;;6.78;3.47;;;;;;;11.16;91.42;99039.91;1869709;76;22140;-64
2021/05/31 01:57:51;;;;;;;7.37;3.27;;;;;;;11.15;91.49;99044.64;1870535;76;22113;-62
2021/05/31 02:00:27;;;;;;;9.45;3.67;;;;;;;11.16;91.60;99045.08;1854729;76;27931;-63
2021/05/31 02:03:03;;;;;;;7.70;3.27;;;;;;;11.23;91.48;99051.17;1854726;76;27910;-63
2021/05/31 02:05:39;;;;;;;6.65;2.85;;;;;;;11.30;91.26;99044.80;1870551;76;22556;-62
2021/05/31 02:08:19;;;;;;;7.55;3.50;;;;;;;11.33;90.82;99046.97;1889863;76;22555;-62
2021/05/31 02:10:59;;;;;;;9.13;3.62;;;;;;;11.31;90.81;99043.06;1870549;76;22141;-62
2021/05/31 02:13:38;;;;;;;7.55;3.27;;;;;;;11.30;90.78;99042.20;1835009;77;22200;-63
2021/05/31 02:16:26;;;;;;;8.08;3.52;;;;;;;11.27;90.42;99047.75;1870367;76;22575;-62
2021/05/31 02:19:02;;;;;;;7.20;2.95;;;;;;;11.24;90.64;99045.14;1873811;76;28277;-63
2021/05/31 02:21:41;;;;;;;9.48;2.85;;;;;;;11.28;90.54;99049.50;1870516;76;22583;-62
2021/05/31 02:24:15;;;;;;;9.58;3.35;;;;;;;11.28;90.53;99056.82;1870900;76;22563;-63
2021/05/31 02:26:51;;;;;;;9.08;3.62;;;;;;;11.25;90.51;99054.22;1873838;76;38359;-63
2021/05/31 02:29:32;;;;;;;5.78;3.10;;;;;;;11.30;90.60;99051.69;1869760;76;22134;-64
2021/05/31 02:32:12;;;;;;;9.65;4.00;;;;;;;11.30;90.54;99055.56;1869867;76;22136;-62
2021/05/31 02:34:47;;;;;;;7.70;3.22;;;;;;;11.30;90.58;99054.27;1889923;76;22188;-65
2021/05/31 02:37:35;;;;;;;8.45;3.45;;;;;;;11.30;90.61;99055.13;1889860;76;22109;-64
2021/05/31 02:40:12;;;;;;;7.83;3.47;;;;;;;11.32;90.84;99051.67;1870617;76;22167;-64
2021/05/31 02:42:56;;;;;;;8.50;4.25;;;;;;;11.31;91.02;99052.11;1870601;76;22132;-62
2021/05/31 02:45:32;;;;;;;8.93;3.72;;;;;;;11.31;91.19;99045.65;1870641;76;22153;-63
2021/05/31 02:48:18;;;;;;;9.00;4.12;;;;;;;11.27;91.28;99056.39;1760392;80;21145;-62
2021/05/31 02:50:56;;;;;;;12.18;3.95;;;;;;;11.32;91.44;99043.49;1854587;76;27913;-64
2021/05/31 02:53:31;;;;;;;9.45;3.70;;;;;;;11.40;91.58;99053.93;1854896;76;27934;-64
2021/05/31 02:56:07;;;;;;;10.95;3.65;;;;;;;11.50;91.61;99053.16;1889899;76;22136;-64
2021/05/31 02:59:01;;;;;;;10.48;3.87;;;;;;;11.52;91.51;99057.89;1883080;75;22203;-63
2021/05/31 03:01:46;;;;;;;9.13;3.55;;;;;;;11.49;91.54;99053.99;1830802;77;21567;-62
2021/05/31 03:04:21;;;;;;;8.75;4.03;;;;;;;11.53;91.52;99054.91;1870690;76;22164;-64
2021/05/31 03:06:55;;;;;;;11.43;3.85;;;;;;;11.55;91.62;99055.76;1870595;76;22120;-63
2021/05/31 03:09:30;;;;;;;12.53;3.60;;;;;;;11.52;91.69;99056.59;1889921;76;22160;-63
2021/05/31 03:12:06;;;;;;;10.53;4.80;;;;;;;11.53;91.84;99054.47;1870598;76;22147;-63
2021/05/31 03:14:40;;;;;;;7.92;4.00;;;;;;;11.58;91.86;99058.39;1854729;76;27897;-63
2021/05/31 03:17:15;;;;;;;7.78;3.60;;;;;;;11.60;91.93;99061.83;1889883;76;22219;-61
2021/05/31 03:19:50;;;;;;;13.62;3.77;;;;;;;11.64;92.04;99058.43;1889929;76;22146;-63
2021/05/31 03:22:25;;;;;;;7.08;3.58;;;;;;;11.72;91.83;99056.77;1870638;76;22591;-63
2021/05/31 03:25:01;;;;;;;7.62;4.00;;;;;;;11.80;91.49;99052.52;1854514;76;28372;-62
2021/05/31 03:27:38;;;;;;;6.53;3.60;;;;;;;11.92;90.99;99046.17;1870542;76;22135;-63
2021/05/31 03:30:14;;;;;;;10.20;3.65;;;;;;;11.98;90.69;99050.52;1870637;76;22113;-66
2021/05/31 03:32:47;;;;;;;15.30;4.17;;;;;;;12.02;90.49;99054.00;1870826;76;22527;-64
2021/05/31 03:35:23;;;;;;;9.50;4.10;;;;;;;12.06;90.42;99054.04;1870848;76;22132;-65
2021/05/31 03:37:57;;;;;;;11.08;4.62;;;;;;;12.11;90.15;99059.22;1889971;76;22140;-64
2021/05/31 03:40:33;;;;;;;10.50;4.53;;;;;;;12.19;90.09;99062.74;1854542;76;27930;-63
2021/05/31 03:43:27;;;;;;;17.50;3.87;;;;;;;12.30;89.74;99057.63;1872510;76;22201;-63
2021/05/31 03:46:01;;;;;;;12.40;4.17;;;;;;;12.33;89.51;99063.67;1870636;76;22145;-62
2021/05/31 03:48:36;;;;;;;14.33;4.47;;;;;;;12.41;89.49;99064.14;1889898;76;22116;-61
2021/05/31 03:51:12;;;;;;;11.15;4.30;;;;;;;12.49;89.35;99060.75;1854526;76;28375;-63
2021/05/31 03:53:54;;;;;;;13.40;3.85;;;;;;;12.62;89.33;99060.38;1889968;76;22147;-63
2021/05/31 03:56:28;;;;;;;7.75;3.62;;;;;;;12.68;88.78;99065.56;1889903;76;22567;-63
2021/05/31 03:59:03;;;;;;;8.00;3.83;;;;;;;12.73;88.17;99068.19;1870617;76;22153;-64
2021/05/31 04:01:37;;;;;;;11.53;3.92;;;;;;;12.71;87.88;99065.58;1889850;76;22112;-64
2021/05/31 04:04:12;;;;;;;7.25;3.05;;;;;;;12.71;86.95;99060.39;1889841;76;22151;-63
2021/05/31 04:12:14;;;;;;;7.33;3.45;;;;;;;12.79;86.52;99057.39;1890012;76;22108;-64
2021/05/31 04:15:03;;;;;;;16.65;4.10;;;;;;;12.78;86.19;99054.82;1791739;80;21162;-61
2021/05/31 04:17:38;;;;;;;14.90;3.92;;;;;;;12.78;85.17;99055.68;1870624;76;22109;-63
2021/05/31 04:20:14;;;;;;;5.30;2.90;;;;;;;12.74;85.15;99055.22;1870682;76;22553;-65
2021/05/31 04:22:49;;;;;;;7.12;3.77;;;;;;;12.73;84.35;99057.39;1870569;76;22536;-65
2021/05/31 04:25:25;;;;;;;9.40;3.47;;;;;;;12.68;84.21;99057.80;1870587;76;20098;-64
2021/05/31 04:28:00;;;;;;;8.68;3.80;;;;;;;12.63;83.83;99059.51;1854669;76;28348;-64
2021/05/31 04:30:46;;;;;;;8.65;3.37;;;;;;;12.68;84.11;99068.16;1826436;77;21175;-64
2021/05/31 04:33:22;;;;;;;9.83;3.55;;;;;;;12.82;83.62;99066.91;1854509;76;27935;-66
2021/05/31 04:35:57;;;;;;;9.43;3.30;;;;;;;12.87;83.38;99063.04;1889871;76;22151;-64
2021/05/31 04:38:32;;;;;;;8.08;3.55;;;;;;;12.88;82.74;99069.53;1870574;76;22156;-64
2021/05/31 04:41:07;;;;;;;11.85;3.87;;;;;;;12.86;82.86;99068.66;1854610;76;27907;-64
2021/05/31 04:43:53;;;;;;;18.15;3.92;;;;;;;12.84;82.31;99074.69;1760542;81;21199;-65
2021/05/31 04:46:29;;;;;;;10.78;3.45;;;;;;;12.86;82.15;99079.45;1870398;76;20102;-64
2021/05/31 04:49:24;;;;;;;10.95;3.55;;;;;;;12.90;81.66;99078.58;1874107;75;22609;-63
2021/05/31 04:52:00;;;;;;;9.10;3.98;;;;;;;13.03;81.46;99081.23;1870625;76;22152;-63
2021/05/31 04:54:34;;;;;;;5.75;3.60;;;;;;;13.18;81.31;99086.89;1870598;76;22558;-64
2021/05/31 04:57:09;;;;;;;7.37;3.85;;;;;;;13.25;80.57;99089.94;1870550;76;22146;-64
2021/05/31 04:59:44;;;;;;;9.18;3.30;;;;;;;13.25;80.47;99084.76;1870567;76;22144;-63
2021/05/31 05:02:18;;;;;;;4.62;2.80;;;;;;;13.36;80.46;99094.31;1872591;76;22196;-64
2021/05/31 05:04:54;;;;;;;9.13;3.87;;;;;;;13.38;79.50;99089.97;1844281;76;28353;-64
2021/05/31 05:07:28;;;;;;;11.95;3.67;;;;;;;13.47;79.41;99083.52;1855809;76;22168;-64
2021/05/31 05:10:04;;;;;;;8.45;3.67;;;;;;;13.54;79.22;99089.14;1862661;76;22148;-65
2021/05/31 05:12:46;;;;;;;8.75;3.30;;;;;;;13.62;78.27;99089.16;1870609;76;22227;-64
2021/05/31 05:15:27;;;;;;;8.65;3.25;;;;;;;13.53;77.82;99091.28;1862355;76;22268;-61
2021/05/31 05:18:02;;;;;;;10.95;3.45;;;;;;;13.44;77.85;99090.00;1841553;76;22183;-59
2021/05/31 05:20:37;;;;;;;9.00;3.95;;;;;;;13.44;78.34;99083.52;1846863;75;28034;-59
2021/05/31 05:23:23;;;;;;;7.22;3.40;;;;;;;13.49;78.43;99088.28;1827722;76;21294;-60
2021/05/31 05:25:58;;;;;;;9.38;4.10;;;;;;;13.61;78.30;99093.48;1844228;76;28344;-61
2021/05/31 05:28:33;;;;;;;7.37;3.50;;;;;;;13.73;77.70;99090.00;1852566;76;22160;-60
2021/05/31 05:31:09;;;;;;;8.28;3.27;;;;;;;13.73;77.81;99092.59;1853788;76;22194;-58
2021/05/31 05:33:44;;;;;;;9.80;3.40;;;;;;;13.71;77.60;99086.55;1844313;76;22670;-57
2021/05/31 05:36:51;;;;;;;7.35;3.35;;;;;;;13.70;76.93;99095.64;1853255;76;22205;-57
2021/05/31 05:47:48;;;;;;;7.25;4.28;;;;;;;13.51;78.11;99093.04;1882325;76;22621;-62
2021/05/31 05:50:29;;;;;;;11.38;4.40;;;;;;;13.45;78.39;99091.72;1851291;76;22191;-63
2021/05/31 05:53:03;;;;;;;7.90;4.37;;;;;;;13.46;78.67;99096.91;1863192;75;22273;-55
2021/05/31 05:55:38;;;;;;;8.15;3.25;;;;;;;13.51;78.74;99091.73;1849933;76;22253;-62
2021/05/31 05:58:28;;;;;;;7.20;3.50;;;;;;;13.60;78.22;99096.91;1813959;77;21158;-61
2021/05/31 06:01:04;;;;;;;7.58;3.45;;;;;;;13.83;77.26;99097.36;1866546;76;22130;-62
2021/05/31 06:03:40;;;;;;;9.28;3.33;;;;;;;14.10;76.95;99093.45;1857752;76;22212;-64
2021/05/31 06:06:15;;;;;;;5.37;3.27;;;;;;;14.58;74.81;99095.10;1850670;76;22172;-59
2021/05/31 06:08:50;;;;;;;7.70;3.08;;;;;;;15.29;73.42;99096.54;1860892;76;22182;-57
2021/05/31 06:11:32;;;;;;;8.10;2.85;;;;;;;16.05;70.01;99103.36;1868024;76;22197;-65
2021/05/31 06:14:17;;;;;;;8.93;3.10;;;;;;;16.58;66.11;99114.98;1832093;77;21664;-62
2021/05/31 06:16:52;;;;;;;10.15;3.20;;;;;;;17.03;63.48;99115.36;1867332;76;22159;-65
2021/05/31 06:19:28;;;;;;;7.50;2.90;;;;;;;17.01;62.77;99117.12;1868899;76;22289;-66
2021/05/31 06:22:10;;;;;;;5.30;2.40;;;;;;;17.36;61.98;99111.88;1858529;76;22621;-57
2021/05/31 06:24:46;;;;;;;7.10;2.90;;;;;;;17.69;59.34;99114.44;1879160;76;22183;-59
2021/05/31 06:27:32;;;;;;;5.08;2.70;;;;;;;18.37;57.88;99118.12;1835833;77;21157;-59
2021/05/31 06:30:09;;;;;;;6.55;2.80;;;;;;;18.39;57.51;99118.07;1882502;76;22211;-62
2021/05/31 06:33:04;;;;;;;9.73;3.27;;;;;;;18.24;58.13;99116.59;1833076;76;38834;-56
2021/05/31 06:35:48;;;;;;;9.83;2.67;;;;;;;18.26;57.52;99109.59;1855226;76;22226;-61
2021/05/31 06:38:23;;;;;;;4.75;2.47;;;;;;;18.79;55.85;99118.20;1855758;76;22241;-60
2021/05/31 06:41:02;;;;;;;6.67;2.35;;;;;;;19.70;53.79;99119.75;1858237;76;20221;-62
2021/05/31 06:43:48;;;;;;;6.83;1.87;;;;;;;20.25;52.07;99118.85;1809030;78;21099;-66
2021/05/31 06:46:43;;;;;;;7.20;2.58;;;;;;;21.34;50.06;99126.29;1854315;76;22243;-59
2021/05/31 06:49:18;;;;;;;6.12;2.83;;;;;;;21.13;49.04;99123.01;1869232;76;27933;-61
2021/05/31 06:51:53;;;;;;;5.75;2.33;;;;;;;20.72;50.62;99119.81;1866622;76;22603;-62
2021/05/31 06:54:27;;;;;;;7.62;2.33;;;;;;;20.24;51.08;99124.97;1846386;76;22278;-62
2021/05/31 06:57:04;;;;;;;8.35;2.85;;;;;;;20.10;50.60;99127.11;1851640;76;20377;-61
2021/05/31 06:59:38;;;;;;;7.62;2.77;;;;;;;20.31;50.08;99124.37;1860829;76;22141;-60
2021/05/31 07:02:23;;;;;;;5.40;2.42;;;;;;;20.62;49.88;99131.45;1831243;77;21208;-60
2021/05/31 07:04:58;;;;;;;7.05;3.12;;;;;;;20.87;48.26;99119.38;1865582;76;22168;-62
2021/05/31 07:07:33;;;;;;;10.48;2.10;;;;;;;21.16;48.28;99127.70;1853155;76;22207;-55
2021/05/31 07:10:15;;;;;;;7.75;2.20;;;;;;;21.59;47.09;99126.43;1869833;76;22254;-72
2021/05/31 07:12:50;;;;;;;10.00;2.72;;;;;;;20.91;47.20;99128.01;1870503;76;22204;-55
2021/05/31 07:15:27;;;;;;;6.83;2.50;;;;;;;20.08;49.31;99124.97;1873647;76;27909;-64
2021/05/31 07:18:01;;;;;;;5.92;2.33;;;;;;;20.25;48.96;99123.20;1873746;76;27933;-62
2021/05/31 07:20:36;;;;;;;9.13;2.30;;;;;;;21.48;47.78;99123.75;1889765;76;22167;-61
2021/05/31 07:23:10;;;;;;;8.43;1.65;;;;;;;22.10;46.20;99130.05;1868974;76;22172;-61
2021/05/31 07:25:47;;;;;;;8.18;1.92;;;;;;;21.72;45.47;99132.16;1860916;76;20123;-58
2021/05/31 07:28:21;;;;;;;5.75;1.85;;;;;;;20.73;46.75;99132.01;1834980;77;22132;-59
2021/05/31 07:31:07;;;;;;;3.77;1.70;;;;;;;19.85;48.28;99139.48;1793461;79;21118;-61
2021/05/31 07:33:41;;;;;;;5.50;2.02;;;;;;;19.77;49.43;99140.55;1870521;76;22152;-59
2021/05/31 07:36:17;;;;;;;5.08;1.90;;;;;;;19.99;49.25;99132.59;1870434;76;22272;-60
2021/05/31 07:38:52;;;;;;;5.20;1.65;;;;;;;20.26;48.31;99131.05;1889765;76;22609;-60
2021/05/31 07:41:27;;;;;;;5.53;1.85;;;;;;;20.26;48.52;99134.13;1854571;76;27893;-61
2021/05/31 07:44:01;;;;;;;3.55;1.82;;;;;;;19.87;49.15;99140.73;1870503;76;22162;-57
2021/05/31 07:46:36;;;;;;;4.12;2.00;;;;;;;19.28;50.24;99143.37;1870498;76;22570;-64
2021/05/31 07:49:22;;;;;;;4.28;1.67;;;;;;;18.56;51.70;99140.84;1827333;78;21146;-62
2021/05/31 07:52:07;;;;;;;5.12;1.87;;;;;;;18.63;52.53;99140.30;1853915;76;38676;-59
2021/05/31 07:54:35;;;;;;;3.17;1.67;;;;;;;19.38;50.99;99136.61;1870552;76;22552;-56
2021/05/31 07:57:09;;;;;;;3.55;1.90;;;;;;;19.73;49.68;99136.70;1870563;76;22235;-57
2021/05/31 07:59:46;;;;;;;3.60;1.55;;;;;;;20.19;49.36;99143.03;1870477;76;22114;-59
2021/05/31 08:02:36;;;;;;;4.30;1.50;;;;;;;20.74;47.35;99137.68;1759511;81;21134;-59
2021/05/31 08:05:14;;;;;;;4.45;1.37;;;;;;;20.98;46.38;99140.91;1854667;76;27921;-60
2021/05/31 08:08:06;;;;;;;3.25;1.57;;;;;;;20.87;46.08;99136.89;1846603;75;27883;-58
2021/05/31 08:10:42;;;;;;;2.92;1.10;;;;;;;20.78;46.51;99137.53;1889838;76;22180;-59
2021/05/31 08:13:28;;;;;;;7.00;1.10;;;;;;;20.52;46.96;99146.53;1791361;80;21154;-59
2021/05/31 08:16:05;;;;;;;6.35;1.55;;;;;;;20.12;48.07;99145.82;1889752;76;22618;-63
2021/05/31 08:19:00;;;;;;;2.90;1.10;;;;;;;19.67;48.17;99157.80;1877725;75;22266;-55
2021/05/31 08:21:44;;;;;;;3.70;1.22;;;;;;;19.26;48.99;99152.14;1870279;76;22552;-61
2021/05/31 08:24:19;;;;;;;2.05;1.27;;;;;;;18.95;49.82;99157.13;1870431;76;22121;-62
2021/05/31 08:27:14;;;;;;;3.33;1.20;;;;;;;18.49;50.94;99155.36;1860870;75;23306;-61
2021/05/31 08:29:55;;;;;;;4.22;1.17;;;;;;;18.00;51.03;99151.84;1870196;76;22567;-57
2021/05/31 08:32:29;;;;;;;1.92;0.80;;;;;;;17.69;52.26;99151.42;1889781;76;22148;-65
2021/05/31 08:35:05;;;;;;;4.17;0.90;;;;;;;17.86;51.96;99152.06;1870518;76;22124;-59
2021/05/31 08:37:45;;;;;;;2.65;1.62;;;;;;;18.71;50.18;99159.75;1856309;76;22572;-58
2021/05/31 08:40:32;;;;;;;1.60;1.00;;;;;;;19.34;49.31;99167.23;1827276;78;21109;-57
2021/05/31 08:43:27;;;;;;;2.08;1.00;;;;;;;20.37;46.87;99156.97;1869321;75;22220;-61
2021/05/31 08:46:02;;;;;;;2.87;1.20;;;;;;;21.36;44.95;99159.07;1873777;76;28306;-56
2021/05/31 08:48:37;;;;;;;2.10;1.10;;;;;;;21.62;43.60;99159.62;1864387;75;22178;-62
2021/05/31 08:51:21;;;;;;;4.28;0.80;;;;;;;21.18;43.76;99163.09;1889709;76;22173;-61
2021/05/31 08:53:54;;;;;;;3.60;1.10;;;;;;;20.64;44.40;99166.38;1854738;76;27875;-60
2021/05/31 08:56:29;;;;;;;4.03;1.00;;;;;;;19.99;46.15;99160.09;1870483;76;22586;-55
2021/05/31 08:59:04;;;;;;;5.72;1.42;;;;;;;19.22;48.07;99163.10;1889803;76;22151;-63
2021/05/31 09:01:40;;;;;;;6.67;2.02;;;;;;;18.72;49.25;99170.16;1872304;75;20113;-61
2021/05/31 09:04:20;;;;;;;2.87;1.27;;;;;;;18.47;50.12;99157.13;1845964;76;22155;-63
2021/05/31 09:07:01;;;;;;;7.92;1.25;;;;;;;18.47;50.31;99158.44;1892370;75;22196;-62
2021/05/31 09:09:43;;;;;;;4.45;1.42;;;;;;;18.39;50.79;99160.77;1873754;76;28293;-61
2021/05/31 09:12:23;;;;;;;2.85;1.47;;;;;;;18.43;51.39;99164.17;1889790;76;22151;-65
2021/05/31 09:15:10;;;;;;;4.67;1.15;;;;;;;18.23;52.11;99164.52;1870345;76;22180;-62
2021/05/31 09:17:47;;;;;;;4.75;1.22;;;;;;;17.85;52.06;99163.37;1859249;76;22210;-61
2021/05/31 09:20:24;;;;;;;1.90;0.80;;;;;;;17.42;52.30;99178.31;1870509;76;22152;-59
2021/05/31 09:22:59;;;;;;;4.30;0.95;;;;;;;17.06;53.33;99176.59;1889806;76;22254;-56
2021/05/31 09:25:35;;;;;;;1.57;0.80;;;;;;;16.70;54.21;99171.33;1889807;76;22207;-62
2021/05/31 09:28:13;;;;;;;2.22;1.10;;;;;;;16.54;54.93;99173.23;1870490;76;22137;-59
2021/05/31 09:30:46;;;;;;;3.05;1.20;;;;;;;16.53;55.73;99171.48;1854731;76;28336;-57
2021/05/31 09:33:21;;;;;;;4.75;1.57;;;;;;;16.58;55.76;99165.79;1870419;76;22168;-65
2021/05/31 09:36:01;;;;;;;7.70;1.60;;;;;;;16.59;55.85;99170.14;1889418;76;22653;-62
2021/05/31 09:38:48;;;;;;;2.67;1.17;;;;;;;16.57;55.97;99169.73;1870558;76;22567;-61
2021/05/31 09:41:34;;;;;;;6.70;1.45;;;;;;;16.70;56.11;99168.27;1859922;76;22191;-62
2021/05/31 09:44:24;;;;;;;2.20;1.12;;;;;;;16.77;55.91;99177.35;1816082;78;21563;-63
2021/05/31 09:46:59;;;;;;;2.62;1.07;;;;;;;16.80;56.06;99174.73;1870499;76;22604;-63
2021/05/31 09:49:36;;;;;;;3.70;0.98;;;;;;;16.68;54.92;99178.29;1889885;76;22152;-62
2021/05/31 09:52:14;;;;;;;4.08;1.10;;;;;;;16.54;54.79;99174.95;1854766;76;27939;-63
2021/05/31 09:54:52;;;;;;;2.75;0.90;;;;;;;16.54;54.95;99177.14;1889871;76;22128;-64
2021/05/31 09:57:31;;;;;;;3.42;1.20;;;;;;;16.61;54.94;99175.31;1870281;76;22165;-61
2021/05/31 10:00:14;;;;;;;2.90;1.10;;;;;;;16.60;54.39;99178.37;1870748;76;22137;-62
2021/05/31 10:02:58;;;;;;;5.03;0.85;;;;;;;16.52;54.30;99182.80;1870492;76;22148;-62
2021/05/31 10:10:44;;;;;;;3.77;1.30;;;;;;;16.10;56.04;99177.07;1854772;76;27917;-64
2021/05/31 10:13:20;;;;;;;2.47;1.37;;;;;;;16.21;56.07;99173.96;1870471;76;22222;-61
2021/05/31 10:16:09;;;;;;;2.17;1.17;;;;;;;16.18;56.36;99170.09;1827279;77;21276;-60
2021/05/31 10:18:45;;;;;;;4.00;1.25;;;;;;;16.31;56.37;99170.84;1869932;76;22329;-64
2021/05/31 10:21:22;;;;;;;4.05;1.10;;;;;;;16.50;56.39;99168.91;1889798;76;22167;-63
2021/05/31 10:23:57;;;;;;;2.22;0.98;;;;;;;16.69;56.10;99167.86;1889852;76;22147;-63
2021/05/31 10:26:40;;;;;;;2.98;1.17;;;;;;;16.89;55.50;99178.52;1889962;76;22177;-60
2021/05/31 10:29:27;;;;;;;2.83;1.12;;;;;;;16.97;54.87;99175.41;1861024;77;21172;-62
2021/05/31 10:32:09;;;;;;;5.67;1.60;;;;;;;16.96;54.85;99171.06;1853587;76;27858;-56
2021/05/31 10:34:48;;;;;;;2.50;0.90;;;;;;;16.92;55.43;99169.39;1889732;76;22593;-65
2021/05/31 10:37:30;;;;;;;3.08;1.30;;;;;;;16.75;55.08;99182.56;1870431;76;22599;-68
2021/05/31 10:40:12;;;;;;;6.60;1.20;;;;;;;16.44;55.86;99172.89;1870545;76;22144;-59
2021/05/31 10:42:51;;;;;;;2.27;1.10;;;;;;;16.25;56.52;99173.03;1870388;76;22206;-61
2021/05/31 10:45:30;;;;;;;3.25;1.47;;;;;;;16.28;56.47;99176.05;1889918;76;22116;-62
2021/05/31 10:48:20;;;;;;;4.75;1.25;;;;;;;16.50;56.13;99170.22;1889787;76;22166;-65
2021/05/31 10:51:00;;;;;;;4.20;0.90;;;;;;;16.60;55.46;99161.44;1870357;76;22575;-68
2021/05/31 10:53:38;;;;;;;3.50;1.07;;;;;;;16.70;55.36;99173.48;1870323;76;22160;-61
2021/05/31 10:56:26;;;;;;;3.55;1.05;;;;;;;16.44;56.10;99165.94;1870517;76;22546;-62
2021/05/31 10:59:18;;;;;;;3.00;1.10;;;;;;;16.43;55.37;99169.41;1816118;78;21401;-61
2021/05/31 11:01:52;;;;;;;2.75;1.10;;;;;;;16.48;55.33;99165.01;1856637;76;22175;-62
2021/05/31 11:04:29;;;;;;;3.33;1.02;;;;;;;16.40;55.13;99165.98;1841820;76;27939;-60
2021/05/31 11:07:26;;;;;;;2.67;1.37;;;;;;;16.41;55.12;99172.48;1827561;78;21609;-60
2021/05/31 11:10:19;;;;;;;1.95;0.90;;;;;;;16.49;55.21;99167.20;1873676;76;28322;-59
2021/05/31 11:12:55;;;;;;;4.35;1.30;;;;;;;16.47;55.32;99161.99;1889736;76;22142;-58
2021/05/31 11:15:35;;;;;;;5.83;1.30;;;;;;;16.45;55.50;99160.28;1862095;76;20373;-59
2021/05/31 11:18:22;;;;;;;2.58;1.30;;;;;;;16.44;55.79;99175.50;1870501;76;22568;-54
2021/05/31 11:20:57;;;;;;;4.42;0.98;;;;;;;16.39;56.36;99174.68;1870496;76;22591;-57
2021/05/31 11:23:48;;;;;;;4.72;1.17;;;;;;;16.27;55.76;99177.80;1752437;81;21154;-58
2021/05/31 11:26:30;;;;;;;3.95;1.10;;;;;;;16.25;55.79;99170.87;1856735;76;22136;-57
2021/05/31 11:29:08;;;;;;;2.98;1.30;;;;;;;16.14;56.05;99167.07;1870829;76;22194;-59
2021/05/31 11:31:45;;;;;;;4.45;1.52;;;;;;;16.07;56.46;99170.59;1889753;76;22625;-59
2021/05/31 11:34:27;;;;;;;4.35;1.40;;;;;;;16.24;56.46;99162.66;1837406;76;22184;-61
2021/05/31 11:37:03;;;;;;;3.77;1.30;;;;;;;16.40;56.01;99163.37;1870418;76;22433;-60
2021/05/31 11:39:38;;;;;;;4.05;1.35;;;;;;;16.48;55.52;99159.80;1870377;76;22168;-62
2021/05/31 11:42:13;;;;;;;2.80;1.40;;;;;;;16.46;55.16;99163.30;1840128;76;22247;-64
2021/05/31 11:44:53;;;;;;;3.30;1.30;;;;;;;16.48;55.25;99159.80;1870214;76;20101;-57
2021/05/31 11:47:30;;;;;;;4.70;1.42;;;;;;;16.61;54.66;99155.77;1870397;76;22144;-63
2021/05/31 11:50:04;;;;;;;3.45;1.20;;;;;;;16.50;54.31;99165.01;1854764;76;27898;-64
2021/05/31 11:52:46;;;;;;;3.10;1.10;;;;;;;16.47;54.22;99161.14;1889503;76;22751;-65
2021/05/31 11:55:28;;;;;;;3.52;1.10;;;;;;;16.40;54.08;99159.47;1854573;76;27898;-56
2021/05/31 11:58:11;;;;;;;6.83;1.17;;;;;;;16.34;54.61;99171.25;1869543;76;22600;-60
2021/05/31 12:00:47;;;;;;;4.35;1.10;;;;;;;16.30;55.15;99170.84;1879978;76;22314;-62
2021/05/31 12:03:45;;;;;;;5.67;1.30;;;;;;;16.32;55.43;99169.09;1865760;75;22221;-64
2021/05/31 12:06:27;;;;;;;3.80;1.10;;;;;;;16.25;55.79;99171.73;1889761;76;22144;-65
2021/05/31 12:09:07;;;;;;;7.05;1.92;;;;;;;16.19;55.27;99174.41;1854408;76;27904;-59
2021/05/31 12:11:40;;;;;;;6.62;1.40;;;;;;;16.16;55.82;99166.62;1870661;76;22577;-62
2021/05/31 12:14:19;;;;;;;6.85;1.82;;;;;;;16.13;56.21;99170.56;1885370;76;22245;-62
2021/05/31 12:17:02;;;;;;;5.80;1.27;;;;;;;16.12;56.56;99168.82;1870541;76;22192;-63
2021/05/31 12:19:57;;;;;;;2.25;1.17;;;;;;;16.07;56.48;99164.09;1870832;75;22205;-61
2021/05/31 12:22:34;;;;;;;3.02;1.20;;;;;;;15.92;56.89;99165.51;1870432;76;20212;-60
2021/05/31 12:25:10;;;;;;;5.00;1.47;;;;;;;15.77;57.21;99167.36;1870642;76;22561;-59
2021/05/31 12:27:44;;;;;;;6.12;1.80;;;;;;;15.60;57.70;99162.67;1854620;76;27914;-62
2021/05/31 12:30:22;;;;;;;10.20;2.40;;;;;;;15.61;57.88;99160.48;1889763;76;22241;-66
2021/05/31 12:32:57;;;;;;;3.30;1.35;;;;;;;15.70;57.79;99157.87;1870300;76;22206;-62
2021/05/31 12:35:39;;;;;;;4.75;1.47;;;;;;;15.75;57.19;99154.80;1889701;76;22196;-63
2021/05/31 12:38:17;;;;;;;9.93;1.57;;;;;;;15.78;57.49;99159.97;1854510;76;28313;-62
2021/05/31 12:40:54;;;;;;;2.75;1.15;;;;;;;15.87;57.12;99147.77;1889720;76;22618;-62
2021/05/31 12:43:33;;;;;;;6.37;1.85;;;;;;;15.90;56.99;99147.32;1870734;76;22547;-60
2021/05/31 12:46:18;;;;;;;5.17;1.00;;;;;;;15.93;56.15;99147.73;1889803;76;22124;-59
2021/05/31 12:48:53;;;;;;;5.45;1.22;;;;;;;16.00;54.85;99146.78;1870467;76;22224;-61